sensor_id;sensor_type;location;lat;lon;timestamp;pressure;altitude;pressure_sealevel;temperature;humidity
13478;BME280;12598;62.382;17.344;2023-05-25T00:00:13;101157.50;;;23.78;28.91
13478;BME280;12598;62.382;17.344;2023-05-25T00:01:16;101163.91;;;23.77;28.49
13478;BME280;12598;62.382;17.344;2023-05-25T00:02:18;101160.19;;;23.78;28.38
13478;BME280;12598;62.382;17.344;2023-05-25T00:03:20;101162.91;;;23.78;28.77
13478;BME280;12598;62.382;17.344;2023-05-25T00:04:22;101148.25;;;23.73;28.43
13478;BME280;12598;62.382;17.344;2023-05-25T00:05:27;101161.22;;;23.77;28.17
13478;BME280;12598;62.382;17.344;2023-05-25T00:06:31;101157.84;;;23.75;28.13
13478;BME280;12598;62.382;17.344;2023-05-25T00:07:33;101155.16;;;23.75;28.44
13478;BME280;12598;62.382;17.344;2023-05-25T00:08:34;101137.50;;;23.65;28.26
13478;BME280;12598;62.382;17.344;2023-05-25T00:09:36;101155.16;;;23.75;28.36
13478;BME280;12598;62.382;17.344;2023-05-25T00:10:38;101156.16;;;23.74;28.08
13478;BME280;12598;62.382;17.344;2023-05-25T00:11:40;101157.19;;;23.73;28.39
13478;BME280;12598;62.382;17.344;2023-05-25T00:12:42;101151.78;;;23.73;28.71
13478;BME280;12598;62.382;17.344;2023-05-25T00:13:44;101158.03;;;23.74;28.38
13478;BME280;12598;62.382;17.344;2023-05-25T00:14:46;101156.34;;;23.73;28.66
13478;BME280;12598;62.382;17.344;2023-05-25T00:15:48;101135.66;;;23.57;28.31
13478;BME280;12598;62.382;17.344;2023-05-25T00:16:50;101145.41;;;23.66;28.02
13478;BME280;12598;62.382;17.344;2023-05-25T00:17:52;101168.34;;;23.70;28.28
13478;BME280;12598;62.382;17.344;2023-05-25T00:18:55;101165.47;;;23.72;28.28
13478;BME280;12598;62.382;17.344;2023-05-25T00:19:58;101162.94;;;23.70;28.23
13478;BME280;12598;62.382;17.344;2023-05-25T00:21:08;101166.28;;;23.72;28.48
13478;BME280;12598;62.382;17.344;2023-05-25T00:22:10;101159.56;;;23.68;28.25
13478;BME280;12598;62.382;17.344;2023-05-25T00:23:12;101166.66;;;23.69;28.46
13478;BME280;12598;62.382;17.344;2023-05-25T00:24:14;101162.25;;;23.68;27.68
13478;BME280;12598;62.382;17.344;2023-05-25T00:25:16;101166.66;;;23.69;28.24
13478;BME280;12598;62.382;17.344;2023-05-25T00:26:19;101175.78;;;23.68;27.82
13478;BME280;12598;62.382;17.344;2023-05-25T00:27:20;101165.97;;;23.67;28.18
13478;BME280;12598;62.382;17.344;2023-05-25T00:28:22;101131.66;;;23.45;28.02
13478;BME280;12598;62.382;17.344;2023-05-25T00:29:24;101161.78;;;23.65;27.39
13478;BME280;12598;62.382;17.344;2023-05-25T00:30:26;101169.88;;;23.65;27.46
13478;BME280;12598;62.382;17.344;2023-05-25T00:31:28;101161.94;;;23.63;27.80
13478;BME280;12598;62.382;17.344;2023-05-25T00:32:33;101164.50;;;23.65;27.47
13478;BME280;12598;62.382;17.344;2023-05-25T00:33:35;101163.63;;;23.64;27.95
13478;BME280;12598;62.382;17.344;2023-05-25T00:34:38;101169.03;;;23.64;27.45
13478;BME280;12598;62.382;17.344;2023-05-25T00:35:41;101168.56;;;23.61;28.02
13478;BME280;12598;62.382;17.344;2023-05-25T00:36:44;101180.03;;;23.63;27.19
13478;BME280;12598;62.382;17.344;2023-05-25T00:37:49;101173.78;;;23.62;27.58
13478;BME280;12598;62.382;17.344;2023-05-25T00:38:52;101185.59;;;23.61;27.11
13478;BME280;12598;62.382;17.344;2023-05-25T00:39:54;101186.59;;;23.60;27.00
13478;BME280;12598;62.382;17.344;2023-05-25T00:40:56;101191.13;;;23.60;27.45
13478;BME280;12598;62.382;17.344;2023-05-25T00:41:58;101189.66;;;23.57;27.14
13478;BME280;12598;62.382;17.344;2023-05-25T00:43:00;101185.94;;;23.58;27.73
13478;BME280;12598;62.382;17.344;2023-05-25T00:44:02;101193.16;;;23.58;27.19
13478;BME280;12598;62.382;17.344;2023-05-25T00:45:04;101187.97;;;23.56;27.70
13478;BME280;12598;62.382;17.344;2023-05-25T00:46:08;101195.41;;;23.54;27.43
13478;BME280;12598;62.382;17.344;2023-05-25T00:47:12;101198.75;;;23.56;26.74
13478;BME280;12598;62.382;17.344;2023-05-25T00:48:14;101195.41;;;23.54;26.71
13478;BME280;12598;62.382;17.344;2023-05-25T00:49:18;101191.16;;;23.52;27.03
13478;BME280;12598;62.382;17.344;2023-05-25T00:50:35;101201.47;;;23.56;26.74
13478;BME280;12598;62.382;17.344;2023-05-25T00:51:37;101188.78;;;23.57;26.94
13478;BME280;12598;62.382;17.344;2023-05-25T00:52:40;101189.13;;;23.54;27.02
13478;BME280;12598;62.382;17.344;2023-05-25T00:53:42;101184.94;;;23.51;26.50
13478;BME280;12598;62.382;17.344;2023-05-25T00:54:46;101195.06;;;23.49;27.36
13478;BME280;12598;62.382;17.344;2023-05-25T00:56:08;101204.66;;;23.52;26.59
13478;BME280;12598;62.382;17.344;2023-05-25T00:57:13;101201.13;;;23.51;26.72
13478;BME280;12598;62.382;17.344;2023-05-25T00:58:20;101201.81;;;23.53;26.41
13478;BME280;12598;62.382;17.344;2023-05-25T00:59:30;101196.75;;;23.50;26.94
13478;BME280;12598;62.382;17.344;2023-05-25T01:00:40;101207.38;;;23.52;27.20
13478;BME280;12598;62.382;17.344;2023-05-25T01:01:44;101203.16;;;23.49;26.37
13478;BME280;12598;62.382;17.344;2023-05-25T01:02:48;101206.88;;;23.48;27.23
13478;BME280;12598;62.382;17.344;2023-05-25T01:03:55;101202.50;;;23.47;26.69
13478;BME280;12598;62.382;17.344;2023-05-25T01:04:59;101208.91;;;23.46;26.37
13478;BME280;12598;62.382;17.344;2023-05-25T01:06:06;101213.66;;;23.44;26.57
13478;BME280;12598;62.382;17.344;2023-05-25T01:07:13;101210.09;;;23.44;26.31
13478;BME280;12598;62.382;17.344;2023-05-25T01:08:19;101211.78;;;23.45;26.83
13478;BME280;12598;62.382;17.344;2023-05-25T01:09:23;101210.94;;;23.44;26.45
13478;BME280;12598;62.382;17.344;2023-05-25T01:10:30;101213.81;;;23.43;26.90
13478;BME280;12598;62.382;17.344;2023-05-25T01:11:35;101219.38;;;23.41;27.03
13478;BME280;12598;62.382;17.344;2023-05-25T01:12:41;101222.09;;;23.41;27.14
13478;BME280;12598;62.382;17.344;2023-05-25T01:13:46;101221.06;;;23.42;27.17
13478;BME280;12598;62.382;17.344;2023-05-25T01:14:49;101222.09;;;23.41;27.19
13478;BME280;12598;62.382;17.344;2023-05-25T01:15:54;101218.53;;;23.41;27.09
13478;BME280;12598;62.382;17.344;2023-05-25T01:16:57;101227.63;;;23.40;26.81
13478;BME280;12598;62.382;17.344;2023-05-25T01:17:59;101219.69;;;23.38;27.12
13478;BME280;12598;62.382;17.344;2023-05-25T01:19:03;101226.13;;;23.37;27.18
13478;BME280;12598;62.382;17.344;2023-05-25T01:20:06;101231.50;;;23.37;27.01
13478;BME280;12598;62.382;17.344;2023-05-25T01:21:19;101219.69;;;23.38;27.01
13478;BME280;12598;62.382;17.344;2023-05-25T01:23:50;101221.06;;;23.42;26.10
13478;BME280;12598;62.382;17.344;2023-05-25T01:25:02;101215.31;;;23.37;26.64
13478;BME280;12598;62.382;17.344;2023-05-25T01:26:12;101220.41;;;23.40;26.25
13478;BME280;12598;62.382;17.344;2023-05-25T01:27:35;101223.59;;;23.44;26.54
13478;BME280;12598;62.382;17.344;2023-05-25T01:28:44;101228.31;;;23.42;26.88
13478;BME280;12598;62.382;17.344;2023-05-25T01:29:48;101224.13;;;23.39;26.99
13478;BME280;12598;62.382;17.344;2023-05-25T01:30:51;101227.13;;;23.36;nan
13478;BME280;12598;62.382;17.344;2023-05-25T01:31:54;101221.06;;;23.34;26.56
13478;BME280;12598;62.382;17.344;2023-05-25T01:32:58;101226.63;;;23.33;26.40
13478;BME280;12598;62.382;17.344;2023-05-25T01:34:03;101229.50;;;23.31;26.92
13478;BME280;12598;62.382;17.344;2023-05-25T01:35:07;101228.16;;;23.27;26.55
13478;BME280;12598;62.382;17.344;2023-05-25T01:36:09;101236.09;;;23.29;26.89
13478;BME280;12598;62.382;17.344;2023-05-25T01:37:11;101234.41;;;23.28;26.53
13478;BME280;12598;62.382;17.344;2023-05-25T01:38:18;101236.91;;;23.29;27.03
13478;BME280;12598;62.382;17.344;2023-05-25T01:39:21;101237.44;;;23.25;26.61
13478;BME280;12598;62.382;17.344;2023-05-25T01:40:23;101246.22;;;23.27;26.48
13478;BME280;12598;62.382;17.344;2023-05-25T01:41:25;101244.53;;;23.26;26.33
13478;BME280;12598;62.382;17.344;2023-05-25T01:42:27;101238.28;;;23.25;26.29
13478;BME280;12598;62.382;17.344;2023-05-25T01:43:29;101247.38;;;23.24;26.85
13478;BME280;12598;62.382;17.344;2023-05-25T01:45:34;101239.81;;;23.20;26.74
13478;BME280;12598;62.382;17.344;2023-05-25T01:47:56;101249.06;;;23.25;26.29
13478;BME280;12598;62.382;17.344;2023-05-25T01:49:21;101248.72;;;23.28;26.79
13478;BME280;12598;62.382;17.344;2023-05-25T01:50:35;101234.56;;;23.26;26.65
13478;BME280;12598;62.382;17.344;2023-05-25T01:51:59;101248.91;;;23.35;26.89
13478;BME280;12598;62.382;17.344;2023-05-25T01:53:17;101245.53;;;23.33;26.51
13478;BME280;12598;62.382;17.344;2023-05-25T01:54:20;101250.25;;;23.31;26.03
13478;BME280;12598;62.382;17.344;2023-05-25T01:55:24;101240.50;;;23.22;26.63
13478;BME280;12598;62.382;17.344;2023-05-25T01:57:35;101255.81;;;23.21;26.42
13478;BME280;12598;62.382;17.344;2023-05-25T01:58:41;101246.03;;;23.20;26.48
13478;BME280;12598;62.382;17.344;2023-05-25T01:59:45;101247.91;;;23.20;26.60
13478;BME280;12598;62.382;17.344;2023-05-25T02:00:49;101247.72;;;23.13;26.54
13478;BME280;12598;62.382;17.344;2023-05-25T02:01:52;101248.06;;;23.18;26.98
13478;BME280;12598;62.382;17.344;2023-05-25T02:02:55;101251.78;;;23.17;26.64
13478;BME280;12598;62.382;17.344;2023-05-25T02:03:57;101258.19;;;23.16;26.24
13478;BME280;12598;62.382;17.344;2023-05-25T02:05:00;101250.25;;;23.15;26.62
13478;BME280;12598;62.382;17.344;2023-05-25T02:06:03;101250.25;;;23.15;26.51
13478;BME280;12598;62.382;17.344;2023-05-25T02:07:09;101256.50;;;23.15;26.70
13478;BME280;12598;62.382;17.344;2023-05-25T02:08:11;101253.81;;;23.15;26.83
13478;BME280;12598;62.382;17.344;2023-05-25T02:09:13;101259.34;;;23.14;27.05
13478;BME280;12598;62.382;17.344;2023-05-25T02:10:15;101248.56;;;23.14;26.17
13478;BME280;12598;62.382;17.344;2023-05-25T02:11:17;101253.28;;;23.12;26.26
13478;BME280;12598;62.382;17.344;2023-05-25T02:12:19;101253.28;;;23.12;26.86
13478;BME280;12598;62.382;17.344;2023-05-25T02:13:22;101262.22;;;23.12;26.23
13478;BME280;12598;62.382;17.344;2023-05-25T02:14:24;101253.47;;;23.10;27.00
13478;BME280;12598;62.382;17.344;2023-05-25T02:15:30;101252.44;;;23.11;27.06
13478;BME280;12598;62.382;17.344;2023-05-25T02:16:32;101248.75;;;23.12;26.36
13478;BME280;12598;62.382;17.344;2023-05-25T02:17:34;101257.84;;;23.11;26.22
13478;BME280;12598;62.382;17.344;2023-05-25T02:18:38;101265.94;;;23.11;26.14
13478;BME280;12598;62.382;17.344;2023-05-25T02:19:40;101268.63;;;23.11;26.20
13478;BME280;12598;62.382;17.344;2023-05-25T02:20:43;101269.66;;;23.10;26.89
13478;BME280;12598;62.382;17.344;2023-05-25T02:21:45;101264.25;;;23.10;26.81
13478;BME280;12598;62.382;17.344;2023-05-25T02:22:47;101265.56;;;23.06;26.74
13478;BME280;12598;62.382;17.344;2023-05-25T02:23:49;101263.53;;;23.08;26.08
13478;BME280;12598;62.382;17.344;2023-05-25T02:24:51;101259.66;;;23.03;26.37
13478;BME280;12598;62.382;17.344;2023-05-25T02:25:52;101271.66;;;23.08;26.10
13478;BME280;12598;62.382;17.344;2023-05-25T02:26:58;101270.63;;;23.09;26.79
13478;BME280;12598;62.382;17.344;2023-05-25T02:28:00;101267.25;;;23.07;26.53
13478;BME280;12598;62.382;17.344;2023-05-25T02:29:04;101276.38;;;23.06;26.52
13478;BME280;12598;62.382;17.344;2023-05-25T02:30:06;101273.66;;;23.06;26.64
13478;BME280;12598;62.382;17.344;2023-05-25T02:31:09;101281.75;;;23.06;26.38
13478;BME280;12598;62.382;17.344;2023-05-25T02:32:10;101287.97;;;23.07;26.69
13478;BME280;12598;62.382;17.344;2023-05-25T02:33:12;101280.06;;;23.05;27.06
13478;BME280;12598;62.382;17.344;2023-05-25T02:34:14;101279.22;;;23.05;26.29
13478;BME280;12598;62.382;17.344;2023-05-25T02:35:16;101285.47;;;23.05;27.10
13478;BME280;12598;62.382;17.344;2023-05-25T02:36:18;101290.00;;;23.05;26.84
13478;BME280;12598;62.382;17.344;2023-05-25T02:37:21;101282.44;;;23.00;26.27
13478;BME280;12598;62.382;17.344;2023-05-25T02:38:23;101286.47;;;23.04;27.04
13478;BME280;12598;62.382;17.344;2023-05-25T02:39:25;101293.56;;;23.05;26.93
13478;BME280;12598;62.382;17.344;2023-05-25T02:40:29;101296.25;;;23.05;26.71
13478;BME280;12598;62.382;17.344;2023-05-25T02:41:32;101301.66;;;23.05;26.74
13478;BME280;12598;62.382;17.344;2023-05-25T02:42:33;101290.00;;;23.05;26.57
13478;BME280;12598;62.382;17.344;2023-05-25T02:43:35;101259.66;;;22.87;26.49
13478;BME280;12598;62.382;17.344;2023-05-25T02:44:38;101293.72;;;23.04;26.44
13478;BME280;12598;62.382;17.344;2023-05-25T02:45:40;101295.59;;;23.03;26.30
13478;BME280;12598;62.382;17.344;2023-05-25T02:46:42;101299.97;;;23.04;26.42
13478;BME280;12598;62.382;17.344;2023-05-25T02:47:45;101296.41;;;23.04;27.13
13478;BME280;12598;62.382;17.344;2023-05-25T02:48:49;101299.09;;;23.04;27.11
13478;BME280;12598;62.382;17.344;2023-05-25T02:49:51;101303.69;;;23.03;26.65
13478;BME280;12598;62.382;17.344;2023-05-25T02:50:53;101300.97;;;23.03;27.11
13478;BME280;12598;62.382;17.344;2023-05-25T02:51:55;101274.97;;;22.86;26.84
13478;BME280;12598;62.382;17.344;2023-05-25T02:52:57;101309.06;;;23.03;26.28
13478;BME280;12598;62.382;17.344;2023-05-25T02:53:59;101307.19;;;23.04;26.74
13478;BME280;12598;62.382;17.344;2023-05-25T02:55:01;101306.38;;;23.03;27.27
13478;BME280;12598;62.382;17.344;2023-05-25T02:56:09;101300.13;;;23.03;26.85
13478;BME280;12598;62.382;17.344;2023-05-25T02:57:11;101310.75;;;23.04;26.71
13478;BME280;12598;62.382;17.344;2023-05-25T02:58:14;101309.91;;;23.04;26.40
13478;BME280;12598;62.382;17.344;2023-05-25T02:59:51;101303.53;;;23.13;26.35
13478;BME280;12598;62.382;17.344;2023-05-25T03:00:53;101309.41;;;23.08;26.25
13478;BME280;12598;62.382;17.344;2023-05-25T03:01:56;101303.34;;;23.06;27.07
13478;BME280;12598;62.382;17.344;2023-05-25T03:02:58;101313.28;;;23.06;26.86
13478;BME280;12598;62.382;17.344;2023-05-25T03:04:00;101308.22;;;23.03;27.00
13478;BME280;12598;62.382;17.344;2023-05-25T03:05:07;101317.84;;;23.05;26.98
13478;BME280;12598;62.382;17.344;2023-05-25T03:06:10;101314.47;;;23.03;26.50
13478;BME280;12598;62.382;17.344;2023-05-25T03:07:14;101319.00;;;23.03;27.17
13478;BME280;12598;62.382;17.344;2023-05-25T03:08:16;101324.41;;;23.03;26.46
13478;BME280;12598;62.382;17.344;2023-05-25T03:09:18;101324.41;;;23.03;26.32
13478;BME280;12598;62.382;17.344;2023-05-25T03:10:22;101323.56;;;23.02;26.80
13478;BME280;12598;62.382;17.344;2023-05-25T03:11:24;101326.28;;;23.02;26.34
13478;BME280;12598;62.382;17.344;2023-05-25T03:12:29;101331.66;;;23.02;26.63
13478;BME280;12598;62.382;17.344;2023-05-25T03:13:31;101328.97;;;23.02;26.75
13478;BME280;12598;62.382;17.344;2023-05-25T03:14:33;101331.81;;;23.01;27.17
13478;BME280;12598;62.382;17.344;2023-05-25T03:15:38;101330.81;;;23.02;27.27
13478;BME280;12598;62.382;17.344;2023-05-25T03:16:40;101332.50;;;23.03;26.44
13478;BME280;12598;62.382;17.344;2023-05-25T03:17:43;101336.19;;;23.02;27.08
13478;BME280;12598;62.382;17.344;2023-05-25T03:18:45;101333.69;;;23.00;27.27
13478;BME280;12598;62.382;17.344;2023-05-25T03:19:47;101340.09;;;22.99;27.14
13478;BME280;12598;62.382;17.344;2023-05-25T03:20:49;101341.78;;;23.00;26.56
13478;BME280;12598;62.382;17.344;2023-05-25T03:21:51;101335.53;;;23.00;26.60
13478;BME280;12598;62.382;17.344;2023-05-25T03:22:54;101335.53;;;23.00;26.64
13478;BME280;12598;62.382;17.344;2023-05-25T03:23:56;101338.56;;;22.97;26.69
13478;BME280;12598;62.382;17.344;2023-05-25T03:24:58;101336.38;;;23.00;26.49
13478;BME280;12598;62.382;17.344;2023-05-25T03:26:00;101341.78;;;23.00;26.76
13478;BME280;12598;62.382;17.344;2023-05-25T03:27:02;101342.09;;;22.97;26.76
13478;BME280;12598;62.382;17.344;2023-05-25T03:28:04;101350.88;;;22.99;27.32
13478;BME280;12598;62.382;17.344;2023-05-25T03:29:06;101352.72;;;22.99;26.67
13478;BME280;12598;62.382;17.344;2023-05-25T03:30:08;101352.72;;;22.99;27.17
13478;BME280;12598;62.382;17.344;2023-05-25T03:31:10;101350.88;;;22.99;27.19
13478;BME280;12598;62.382;17.344;2023-05-25T03:32:13;101358.09;;;22.99;27.08
13478;BME280;12598;62.382;17.344;2023-05-25T03:33:15;101353.56;;;22.99;27.00
13478;BME280;12598;62.382;17.344;2023-05-25T03:34:20;101352.56;;;23.00;27.14
13478;BME280;12598;62.382;17.344;2023-05-25T03:35:22;101361.66;;;22.99;26.74
13478;BME280;12598;62.382;17.344;2023-05-25T03:36:24;101357.28;;;22.98;26.38
13478;BME280;12598;62.382;17.344;2023-05-25T03:37:28;101358.97;;;22.99;26.48
13478;BME280;12598;62.382;17.344;2023-05-25T03:38:31;101360.81;;;22.99;27.20
13478;BME280;12598;62.382;17.344;2023-05-25T03:39:33;101353.56;;;22.99;27.03
13478;BME280;12598;62.382;17.344;2023-05-25T03:40:34;101357.28;;;22.98;26.35
13478;BME280;12598;62.382;17.344;2023-05-25T03:41:36;101348.31;;;22.98;26.29
13478;BME280;12598;62.382;17.344;2023-05-25T03:42:38;101357.44;;;22.97;26.79
13478;BME280;12598;62.382;17.344;2023-05-25T03:43:41;101351.22;;;22.96;26.27
13478;BME280;12598;62.382;17.344;2023-05-25T03:44:43;101355.59;;;22.97;27.03
13478;BME280;12598;62.382;17.344;2023-05-25T03:45:45;101357.44;;;22.97;26.56
13478;BME280;12598;62.382;17.344;2023-05-25T03:46:48;101356.59;;;22.96;26.99
13478;BME280;12598;62.382;17.344;2023-05-25T03:47:50;101355.59;;;22.97;26.89
13478;BME280;12598;62.382;17.344;2023-05-25T03:48:53;101351.84;;;22.90;26.54
13478;BME280;12598;62.382;17.344;2023-05-25T03:49:55;101357.59;;;22.95;26.85
13478;BME280;12598;62.382;17.344;2023-05-25T03:50:57;101353.03;;;22.96;26.28
13478;BME280;12598;62.382;17.344;2023-05-25T03:52:00;101362.00;;;22.96;26.37
13478;BME280;12598;62.382;17.344;2023-05-25T03:53:02;101357.44;;;22.97;26.36
13478;BME280;12598;62.382;17.344;2023-05-25T03:54:04;101360.13;;;22.97;26.54
13478;BME280;12598;62.382;17.344;2023-05-25T03:55:06;101356.59;;;22.96;26.95
13478;BME280;12598;62.382;17.344;2023-05-25T03:56:08;101361.13;;;22.96;26.63
13478;BME280;12598;62.382;17.344;2023-05-25T03:57:11;101365.66;;;22.95;26.51
13478;BME280;12598;62.382;17.344;2023-05-25T03:58:13;101371.06;;;22.95;26.59
13478;BME280;12598;62.382;17.344;2023-05-25T03:59:16;101331.25;;;22.73;27.08
13478;BME280;12598;62.382;17.344;2023-05-25T04:00:20;101372.78;;;22.96;26.12
13478;BME280;12598;62.382;17.344;2023-05-25T04:01:23;101374.63;;;22.96;26.25
13478;BME280;12598;62.382;17.344;2023-05-25T04:02:27;101365.66;;;22.95;26.82
13478;BME280;12598;62.382;17.344;2023-05-25T04:03:29;101376.47;;;22.95;26.70
13478;BME280;12598;62.382;17.344;2023-05-25T04:04:33;101377.31;;;22.96;26.90
13478;BME280;12598;62.382;17.344;2023-05-25T04:05:35;101381.03;;;22.95;26.54
13478;BME280;12598;62.382;17.344;2023-05-25T04:06:37;101379.16;;;22.95;26.81
13478;BME280;12598;62.382;17.344;2023-05-25T04:07:41;101386.41;;;22.95;26.72
13478;BME280;12598;62.382;17.344;2023-05-25T04:08:42;101390.97;;;22.94;26.13
13478;BME280;12598;62.382;17.344;2023-05-25T04:09:44;101389.94;;;22.95;26.99
13478;BME280;12598;62.382;17.344;2023-05-25T04:10:46;101390.97;;;22.94;26.54
13478;BME280;12598;62.382;17.344;2023-05-25T04:11:49;101392.66;;;22.95;26.11
13478;BME280;12598;62.382;17.344;2023-05-25T04:12:51;101391.81;;;22.95;26.78
13478;BME280;12598;62.382;17.344;2023-05-25T04:13:53;101385.56;;;22.94;26.53
13478;BME280;12598;62.382;17.344;2023-05-25T04:14:57;101396.19;;;22.96;26.14
13478;BME280;12598;62.382;17.344;2023-05-25T04:16:00;101392.50;;;22.97;26.85
13478;BME280;12598;62.382;17.344;2023-05-25T04:17:04;101392.34;;;22.98;26.52
13478;BME280;12598;62.382;17.344;2023-05-25T04:18:06;101396.06;;;22.97;27.08
13478;BME280;12598;62.382;17.344;2023-05-25T04:19:09;101376.63;;;22.86;26.53
13478;BME280;12598;62.382;17.344;2023-05-25T04:20:11;101387.78;;;22.99;26.20
13478;BME280;12598;62.382;17.344;2023-05-25T04:21:13;101394.03;;;22.99;26.54
13478;BME280;12598;62.382;17.344;2023-05-25T04:22:15;101386.78;;;23.00;26.60
13478;BME280;12598;62.382;17.344;2023-05-25T04:23:17;101390.31;;;23.00;26.43
13478;BME280;12598;62.382;17.344;2023-05-25T04:24:21;101398.41;;;23.00;26.85
13478;BME280;12598;62.382;17.344;2023-05-25T04:25:23;101394.72;;;23.01;26.14
13478;BME280;12598;62.382;17.344;2023-05-25T04:26:30;101390.16;;;23.02;26.29
13478;BME280;12598;62.382;17.344;2023-05-25T04:27:36;101396.06;;;23.05;26.82
13478;BME280;12598;62.382;17.344;2023-05-25T04:28:40;101398.78;;;23.05;26.82
13478;BME280;12598;62.382;17.344;2023-05-25T04:29:57;101394.72;;;23.09;26.53
13478;BME280;12598;62.382;17.344;2023-05-25T04:31:20;101389.72;;;23.14;26.22
13478;BME280;12598;62.382;17.344;2023-05-25T04:32:35;101389.72;;;23.14;26.72
13478;BME280;12598;62.382;17.344;2023-05-25T04:34:01;101379.25;;;23.19;26.42
13478;BME280;12598;62.382;17.344;2023-05-25T04:35:06;101385.00;;;23.16;26.03
13478;BME280;12598;62.382;17.344;2023-05-25T04:36:14;101382.44;;;23.15;25.97
13478;BME280;12598;62.382;17.344;2023-05-25T04:37:16;101390.72;;;23.13;26.28
13478;BME280;12598;62.382;17.344;2023-05-25T04:38:19;101392.75;;;23.11;26.12
13478;BME280;12598;62.382;17.344;2023-05-25T04:39:21;101392.75;;;23.11;26.17
13478;BME280;12598;62.382;17.344;2023-05-25T04:40:27;101392.75;;;23.11;26.52
13478;BME280;12598;62.382;17.344;2023-05-25T04:41:29;101388.34;;;23.10;25.68
13478;BME280;12598;62.382;17.344;2023-05-25T04:42:34;101392.75;;;23.11;26.26
13478;BME280;12598;62.382;17.344;2023-05-25T04:43:36;101384.41;;;23.05;26.42
13478;BME280;12598;62.382;17.344;2023-05-25T04:44:39;101389.66;;;23.06;26.44
13478;BME280;12598;62.382;17.344;2023-05-25T04:45:42;101393.75;;;23.10;25.96
13478;BME280;12598;62.382;17.344;2023-05-25T04:46:44;101392.75;;;23.11;26.60
13478;BME280;12598;62.382;17.344;2023-05-25T04:47:52;101390.88;;;23.12;26.01
13478;BME280;12598;62.382;17.344;2023-05-25T04:48:54;101390.88;;;23.12;26.64
13478;BME280;12598;62.382;17.344;2023-05-25T04:49:56;101403.53;;;23.11;26.59
13478;BME280;12598;62.382;17.344;2023-05-25T04:50:58;101396.44;;;23.10;25.95
13478;BME280;12598;62.382;17.344;2023-05-25T04:52:05;101398.81;;;23.13;26.12
13478;BME280;12598;62.382;17.344;2023-05-25T04:53:08;101398.97;;;23.12;26.54
13478;BME280;12598;62.382;17.344;2023-05-25T04:54:10;101398.97;;;23.12;26.54
13478;BME280;12598;62.382;17.344;2023-05-25T04:55:12;101393.56;;;23.12;26.73
13478;BME280;12598;62.382;17.344;2023-05-25T04:56:16;101400.66;;;23.13;26.14
13478;BME280;12598;62.382;17.344;2023-05-25T04:57:18;101403.53;;;23.11;25.94
13478;BME280;12598;62.382;17.344;2023-05-25T04:58:22;101400.66;;;23.13;26.31
13478;BME280;12598;62.382;17.344;2023-05-25T04:59:24;101400.84;;;23.11;26.00
13478;BME280;12598;62.382;17.344;2023-05-25T05:00:26;101399.81;;;23.12;25.72
13478;BME280;12598;62.382;17.344;2023-05-25T05:01:31;101405.22;;;23.12;25.78
13478;BME280;12598;62.382;17.344;2023-05-25T05:02:36;101399.81;;;23.12;26.23
13478;BME280;12598;62.382;17.344;2023-05-25T05:03:39;101397.97;;;23.13;26.44
13478;BME280;12598;62.382;17.344;2023-05-25T05:04:41;101391.06;;;23.10;26.31
13478;BME280;12598;62.382;17.344;2023-05-25T05:05:43;101398.97;;;23.12;26.68
13478;BME280;12598;62.382;17.344;2023-05-25T05:06:51;101398.81;;;23.13;26.22
13478;BME280;12598;62.382;17.344;2023-05-25T05:07:56;101386.16;;;23.14;26.19
13478;BME280;12598;62.382;17.344;2023-05-25T05:08:59;101389.72;;;23.14;25.87
13478;BME280;12598;62.382;17.344;2023-05-25T05:10:02;101395.94;;;23.15;26.26
13478;BME280;12598;62.382;17.344;2023-05-25T05:11:05;101399.50;;;23.15;26.26
13478;BME280;12598;62.382;17.344;2023-05-25T05:12:07;101398.47;;;23.16;25.78
13478;BME280;12598;62.382;17.344;2023-05-25T05:13:15;101398.00;;;23.21;25.93
13478;BME280;12598;62.382;17.344;2023-05-25T05:14:17;101389.03;;;23.20;26.60
13478;BME280;12598;62.382;17.344;2023-05-25T05:15:21;101389.72;;;23.22;25.78
13478;BME280;12598;62.382;17.344;2023-05-25T05:16:23;101389.72;;;23.22;25.90
13478;BME280;12598;62.382;17.344;2023-05-25T05:17:25;101386.88;;;23.24;26.05
13478;BME280;12598;62.382;17.344;2023-05-25T05:18:29;101395.47;;;23.27;26.44
13478;BME280;12598;62.382;17.344;2023-05-25T05:19:31;101390.75;;;23.29;25.73
13478;BME280;12598;62.382;17.344;2023-05-25T05:20:34;101379.78;;;23.31;25.37
13478;BME280;12598;62.382;17.344;2023-05-25T05:21:36;101390.06;;;23.35;26.32
13478;BME280;12598;62.382;17.344;2023-05-25T05:22:40;101372.53;;;23.31;26.09
13478;BME280;12598;62.382;17.344;2023-05-25T05:23:42;101397.84;;;23.38;25.61
13478;BME280;12598;62.382;17.344;2023-05-25T05:24:44;101391.13;;;23.42;26.08
13478;BME280;12598;62.382;17.344;2023-05-25T05:25:53;101386.22;;;23.46;25.27
13478;BME280;12598;62.382;17.344;2023-05-25T05:26:55;101375.59;;;23.44;25.40
13478;BME280;12598;62.382;17.344;2023-05-25T05:28:12;101382.34;;;23.56;24.97
13478;BME280;12598;62.382;17.344;2023-05-25T05:29:14;101383.19;;;23.57;25.23
13478;BME280;12598;62.382;17.344;2023-05-25T05:30:17;101384.72;;;23.59;24.89
13478;BME280;12598;62.382;17.344;2023-05-25T05:31:20;101389.25;;;23.59;25.53
13478;BME280;12598;62.382;17.344;2023-05-25T05:32:22;101383.34;;;23.63;25.42
13478;BME280;12598;62.382;17.344;2023-05-25T05:33:24;101388.41;;;23.66;24.89
13478;BME280;12598;62.382;17.344;2023-05-25T05:34:27;101392.81;;;23.67;25.68